Time;durP1;ratioP1;P1;durP2;ratioP2;P2;SDS_P1;SDS_P2;PMS_P1;PMS_P2;Temp;Humidity;BMP_temperature;BMP_pressure;BME280_temperature;BME280_humidity;BME280_pressure;Samples;Min_cycle;Max_cycle;Signal;HPM_P1;HPM_P2
2023/11/30 08:30:40;;;;;;;29.35;7.47;;;;;;;19.59;47.49;100228.34;5001237;27;1989999;-36
2023/11/30 08:33:06;;;;;;;50.40;8.60;;;;;;;19.59;47.92;100222.84;5060369;28;20104;-37
2023/11/30 08:35:32;;;;;;;27.02;6.95;;;;;;;19.61;48.14;100228.84;5062032;28;20577;-36
2023/11/30 08:37:58;;;;;;;21.38;6.95;;;;;;;19.64;48.23;100228.22;5056553;28;20043;-36
2023/11/30 08:40:24;;;;;;;19.92;7.22;;;;;;;19.64;47.90;100225.47;5058781;28;20029;-36
2023/11/30 08:42:49;;;;;;;11.35;6.65;;;;;;;19.66;47.77;100227.94;5063997;28;20043;-37
2023/11/30 08:45:15;;;;;;;9.35;6.88;;;;;;;19.67;47.42;100221.34;5062248;28;20028;-37
2023/11/30 08:47:42;;;;;;;12.57;7.03;;;;;;;19.68;47.55;100218.28;5045971;28;20484;-37
2023/11/30 08:50:07;;;;;;;8.05;6.70;;;;;;;19.70;47.41;100217.97;5061113;28;20453;-38
2023/11/30 08:52:33;;;;;;;7.40;5.97;;;;;;;19.69;47.24;100214.41;5057876;28;20143;-39
2023/11/30 08:54:58;;;;;;;8.40;6.03;;;;;;;19.72;47.10;100218.50;5054126;28;20029;-38
2023/11/30 08:57:23;;;;;;;7.60;6.32;;;;;;;19.72;47.22;100215.75;5057902;28;20230;-38
2023/11/30 08:59:49;;;;;;;8.15;6.38;;;;;;;19.73;46.91;100218.19;5053155;28;20028;-36
2023/11/30 09:02:15;;;;;;;12.88;6.60;;;;;;;19.72;47.33;100222.03;5060315;28;20081;-37
2023/11/30 09:04:40;;;;;;;9.55;6.30;;;;;;;19.73;47.55;100223.69;5054701;28;20047;-37
2023/11/30 09:07:06;;;;;;;22.70;6.32;;;;;;;19.73;47.54;100222.88;5055731;28;20055;-38
2023/11/30 09:09:31;;;;;;;12.20;5.72;;;;;;;19.72;47.51;100229.50;5060808;28;20276;-38
2023/11/30 09:11:56;;;;;;;9.13;5.63;;;;;;;19.75;47.92;100223.38;5042742;28;20032;-43
2023/11/30 09:14:22;;;;;;;11.90;5.80;;;;;;;19.77;47.84;100231.34;5058740;28;20039;-43
2023/11/30 09:16:48;;;;;;;8.98;6.07;;;;;;;19.78;47.63;100233.78;5057361;28;20120;-42
2023/11/30 09:19:14;;;;;;;7.97;5.63;;;;;;;19.79;47.45;100232.66;5063184;28;20194;-42
2023/11/30 09:21:39;;;;;;;8.40;5.90;;;;;;;19.80;47.61;100238.97;5061573;28;20024;-44
2023/11/30 09:24:05;;;;;;;6.82;6.10;;;;;;;19.79;47.37;100227.16;5062409;28;20040;-44
2023/11/30 09:26:31;;;;;;;8.25;6.40;;;;;;;19.81;47.12;100232.34;5042066;28;20060;-45
2023/11/30 09:28:57;;;;;;;8.82;6.15;;;;;;;19.81;47.30;100235.91;5043325;28;20054;-44
2023/11/30 09:31:22;;;;;;;8.38;6.00;;;;;;;19.81;47.12;100232.34;5063273;28;20380;-43
2023/11/30 09:33:48;;;;;;;10.57;6.03;;;;;;;19.81;47.24;100246.09;5038633;28;20070;-45
2023/11/30 09:36:13;;;;;;;10.07;6.65;;;;;;;19.81;47.29;100241.41;5061386;28;20493;-43
2023/11/30 09:38:38;;;;;;;38.60;6.85;;;;;;;19.81;47.31;100248.84;5061420;28;20480;-43
2023/11/30 09:41:12;;;;;;;232.98;13.93;;;;;;;19.81;47.22;100249.66;5045872;28;20041;-42
2023/11/30 09:43:37;;;;;;;13.10;6.40;;;;;;;19.82;47.09;100250.47;5038495;28;20555;-36
2023/11/30 09:46:03;;;;;;;12.15;6.47;;;;;;;19.82;47.14;100245.78;5045146;28;20162;-35
2023/11/30 09:48:28;;;;;;;9.00;6.45;;;;;;;19.84;46.87;100237.25;5022843;28;20047;-36
2023/11/30 09:50:53;;;;;;;11.70;7.03;;;;;;;19.86;46.65;100241.34;5045677;28;20021;-36
2023/11/30 09:53:19;;;;;;;12.57;7.00;;;;;;;19.89;46.90;100239.94;5027102;28;20063;-35
2023/11/30 09:55:45;;;;;;;18.67;7.85;;;;;;;19.91;46.60;100239.63;5027674;28;20032;-36
2023/11/30 09:58:10;;;;;;;21.67;9.00;;;;;;;19.94;46.80;100234.31;5051901;28;20086;-35
2023/11/30 10:00:35;;;;;;;22.85;9.23;;;;;;;19.98;46.52;100240.84;5045311;28;20531;-37
2023/11/30 10:03:04;;;;;;;22.20;10.10;;;;;;;20.03;46.87;100243.47;5045427;28;20429;-36
2023/11/30 10:05:29;;;;;;;31.48;10.07;;;;;;;20.07;46.60;100238.19;5044267;28;20389;-36
2023/11/30 10:07:58;;;;;;;24.55;9.60;;;;;;;20.13;46.88;100244.41;5040723;28;20025;-37
2023/11/30 10:10:24;;;;;;;25.35;9.35;;;;;;;20.17;46.98;100243.50;5045514;28;20029;-37
2023/11/30 10:12:50;;;;;;;27.08;9.43;;;;;;;20.21;46.95;100251.97;5041972;28;20055;-35
2023/11/30 10:15:15;;;;;;;28.70;9.55;;;;;;;20.24;46.89;100245.03;5045341;28;20054;-38
2023/11/30 10:17:41;;;;;;;29.83;9.98;;;;;;;20.31;46.99;100249.00;5041900;28;20499;-36
2023/11/30 10:20:11;;;;;;;41.95;9.77;;;;;;;20.38;46.51;100250.50;5045196;28;20021;-37
2023/11/30 10:22:36;;;;;;;31.05;9.30;;;;;;;20.41;46.65;100244.41;5044963;28;20033;-36
2023/11/30 10:25:03;;;;;;;20.77;8.65;;;;;;;20.46;46.33;100247.03;5052107;28;20029;-44
2023/11/30 10:27:30;;;;;;;21.52;7.97;;;;;;;20.49;46.45;100254.66;5039762;28;20112;-42
2023/11/30 10:29:59;;;;;;;23.90;8.40;;;;;;;20.52;46.28;100246.63;5020072;28;20472;-41
2023/11/30 10:32:25;;;;;;;22.02;7.63;;;;;;;20.55;45.97;100244.38;5051843;28;20056;-42
2023/11/30 10:34:54;;;;;;;22.45;7.75;;;;;;;20.59;45.92;100237.94;5048146;28;20515;-41
2023/11/30 10:37:23;;;;;;;17.63;7.60;;;;;;;20.62;45.79;100242.81;5023994;28;20090;-41
2023/11/30 10:40:15;;;;;;;15.35;6.60;;;;;;;20.64;45.31;100240.59;5029061;28;20036;-42
2023/11/30 10:42:41;;;;;;;15.68;6.63;;;;;;;20.67;45.47;100239.16;5031540;28;20079;-45
2023/11/30 10:45:08;;;;;;;43.90;7.68;;;;;;;20.67;45.38;100234.47;5047558;28;20024;-41
2023/11/30 10:47:41;;;;;;;11.27;6.30;;;;;;;20.66;45.44;100232.84;5042364;28;20346;-40
2023/11/30 10:50:09;;;;;;;15.05;6.53;;;;;;;20.66;45.23;100232.00;5045292;28;20029;-40
2023/11/30 10:52:35;;;;;;;12.95;5.85;;;;;;;20.66;44.99;100232.00;5041824;28;20817;-39
2023/11/30 10:55:12;;;;;;;89.28;8.05;;;;;;;20.64;45.21;100237.84;5042287;28;20029;-40
2023/11/30 10:57:42;;;;;;;10.43;5.78;;;;;;;20.61;45.10;100234.88;5053740;28;20043;-37
2023/11/30 11:00:11;;;;;;;9.13;5.00;;;;;;;20.60;44.71;100244.25;5043192;28;20021;-37
2023/11/30 11:02:38;;;;;;;9.25;4.93;;;;;;;20.58;45.30;100241.81;5045176;28;20033;-37
2023/11/30 11:05:13;;;;;;;16.63;5.22;;;;;;;20.54;45.53;100243.56;5053246;28;20028;-37
2023/11/30 11:07:49;;;;;;;11.93;4.60;;;;;;;20.51;45.18;100242.25;5042361;28;20037;-37
2023/11/30 11:10:34;;;;;;;7.55;4.68;;;;;;;20.48;45.33;100242.06;5009301;28;20029;-39
2023/11/30 11:13:00;;;;;;;10.98;4.40;;;;;;;20.45;45.59;100235.22;5039636;28;20117;-39
2023/11/30 11:15:31;;;;;;;8.20;4.38;;;;;;;20.44;45.80;100243.78;5045068;28;20124;-39
2023/11/30 11:18:07;;;;;;;7.07;5.28;;;;;;;20.43;45.85;100240.22;5036034;28;20048;-37
2023/11/30 11:20:35;;;;;;;7.47;3.78;;;;;;;20.42;45.87;100246.84;5027116;28;20040;-36
2023/11/30 11:23:04;;;;;;;7.55;3.65;;;;;;;20.42;46.13;100248.78;5036134;28;20529;-36
2023/11/30 11:25:50;;;;;;;8.35;3.65;;;;;;;20.41;46.12;100247.97;5044655;28;20036;-36
2023/11/30 11:28:17;;;;;;;7.10;3.50;;;;;;;20.41;45.95;100247.16;5042754;28;20033;-36
2023/11/30 11:30:44;;;;;;;7.38;3.92;;;;;;;20.40;45.72;100243.56;5043877;28;20505;-39
2023/11/30 11:33:10;;;;;;;6.72;3.45;;;;;;;20.38;45.72;100247.75;5041125;28;20108;-39
2023/11/30 11:35:35;;;;;;;8.68;3.70;;;;;;;20.36;45.59;100240.63;5025906;28;20027;-36
2023/11/30 11:38:01;;;;;;;8.80;3.40;;;;;;;20.33;45.85;100232.16;5036102;28;20517;-36
2023/11/30 11:40:27;;;;;;;5.25;3.28;;;;;;;20.31;45.86;100232.47;5041823;28;20028;-36
2023/11/30 11:42:52;;;;;;;8.35;3.63;;;;;;;20.29;45.54;100233.91;5043196;28;20328;-39
2023/11/30 11:45:18;;;;;;;6.15;3.80;;;;;;;20.27;45.67;100236.16;5026358;28;20464;-39
2023/11/30 11:47:43;;;;;;;7.63;3.40;;;;;;;20.24;45.46;100223.81;5031354;28;20035;-38
2023/11/30 11:50:12;;;;;;;4.13;3.28;;;;;;;20.23;45.45;100227.69;5042163;28;20068;-39
2023/11/30 11:52:39;;;;;;;4.50;3.28;;;;;;;20.25;45.42;100230.16;5043749;28;20036;-36
2023/11/30 11:55:08;;;;;;;5.05;3.20;;;;;;;20.25;45.43;100227.41;5048977;28;20646;-36
2023/11/30 11:57:34;;;;;;;5.65;3.00;;;;;;;20.26;45.79;100232.59;5042482;28;20056;-40
2023/11/30 12:00:00;;;;;;;5.60;3.10;;;;;;;20.27;45.68;100214.13;5025992;28;20025;-39
2023/11/30 12:02:25;;;;;;;4.45;3.33;;;;;;;20.29;45.81;100218.19;5039882;28;20033;-38
2023/11/30 12:04:51;;;;;;;4.07;3.20;;;;;;;20.31;45.71;100215.16;5042560;28;20068;-40
2023/11/30 12:07:16;;;;;;;4.35;3.40;;;;;;;20.32;45.56;100217.59;5042048;28;20090;-39
2023/11/30 12:09:52;;;;;;;5.13;3.10;;;;;;;20.33;45.75;100221.16;5038434;28;20393;-39
2023/11/30 12:12:18;;;;;;;4.43;2.88;;;;;;;20.32;45.70;100214.84;5039485;28;20166;-36
2023/11/30 12:14:43;;;;;;;3.35;2.97;;;;;;;20.32;46.01;100208.53;5050104;28;20525;-38
2023/11/30 12:17:09;;;;;;;5.28;2.90;;;;;;;20.34;45.68;100212.63;5026377;28;20033;-36
2023/11/30 12:19:35;;;;;;;2.92;2.63;;;;;;;20.33;45.78;100205.47;5024926;28;20100;-39
2023/11/30 12:22:00;;;;;;;4.35;3.10;;;;;;;20.34;45.79;100207.13;5027784;28;20095;-39
2023/11/30 12:24:26;;;;;;;3.50;2.78;;;;;;;20.35;46.07;100199.66;5026866;28;20033;-39
2023/11/30 12:26:51;;;;;;;3.28;2.72;;;;;;;20.35;45.96;100196.91;5044165;28;20385;-39
2023/11/30 12:29:17;;;;;;;4.47;2.72;;;;;;;20.36;46.15;100199.34;5042833;28;20077;-40
2023/11/30 12:31:42;;;;;;;3.35;2.70;;;;;;;20.36;46.28;100199.34;5035626;28;20113;-39
2023/11/30 12:34:08;;;;;;;4.75;2.72;;;;;;;20.37;46.24;100200.19;5037538;28;20095;-40
2023/11/30 12:36:34;;;;;;;3.03;2.40;;;;;;;20.38;46.42;100198.22;5039622;28;20052;-38
2023/11/30 12:38:59;;;;;;;4.35;2.60;;;;;;;20.39;46.42;100197.09;5041147;28;20103;-39
2023/11/30 12:41:24;;;;;;;3.85;2.50;;;;;;;20.38;46.53;100190.81;5045401;28;20055;-36
2023/11/30 12:43:50;;;;;;;4.30;2.58;;;;;;;20.40;46.47;100199.53;5024537;28;20045;-37
2023/11/30 12:46:15;;;;;;;3.13;2.50;;;;;;;20.42;46.35;100200.06;5042869;28;20122;-37
2023/11/30 12:48:41;;;;;;;3.00;2.70;;;;;;;20.42;46.51;100199.25;5042516;28;21178;-40
2023/11/30 12:51:07;;;;;;;2.60;2.40;;;;;;;20.42;46.64;100197.31;5043864;28;20025;-39
2023/11/30 12:53:33;;;;;;;3.20;2.33;;;;;;;20.43;46.35;100198.94;5043641;28;20028;-39
2023/11/30 12:55:58;;;;;;;3.28;2.42;;;;;;;20.44;46.41;100196.97;5039486;28;20692;-40
2023/11/30 12:58:23;;;;;;;2.60;2.40;;;;;;;20.43;46.45;100193.44;5037668;28;20049;-39
2023/11/30 13:00:49;;;;;;;3.10;2.53;;;;;;;20.45;46.31;100195.88;5023666;28;20041;-37
2023/11/30 13:03:14;;;;;;;4.35;2.30;;;;;;;20.45;46.15;100193.94;5025214;28;20029;-37
2023/11/30 13:05:40;;;;;;;2.80;2.22;;;;;;;20.46;46.16;100197.50;5033811;28;20053;-37
2023/11/30 13:08:05;;;;;;;2.63;2.42;;;;;;;20.46;46.39;100198.31;5031773;28;20473;-39
2023/11/30 13:10:32;;;;;;;2.90;2.28;;;;;;;20.48;46.31;100200.78;5043186;28;20029;-40
2023/11/30 13:12:58;;;;;;;2.72;2.47;;;;;;;20.48;46.15;100195.25;5041490;28;20397;-38
2023/11/30 13:15:23;;;;;;;2.58;2.20;;;;;;;20.49;46.13;100199.63;5043712;28;20029;-39
2023/11/30 13:17:48;;;;;;;3.45;2.70;;;;;;;20.49;46.29;100208.72;5010542;28;21050;-40
2023/11/30 13:20:14;;;;;;;2.45;2.25;;;;;;;20.50;46.05;100204.00;5041166;28;20025;-37
2023/11/30 13:22:43;;;;;;;4.18;2.13;;;;;;;20.50;45.73;100198.50;5046517;28;20075;-40
2023/11/30 13:25:11;;;;;;;3.05;2.47;;;;;;;20.51;45.96;100205.63;5031886;28;20532;-37
2023/11/30 13:27:36;;;;;;;3.38;2.30;;;;;;;20.52;45.56;100204.53;5025279;28;20017;-38
2023/11/30 13:30:04;;;;;;;4.40;2.45;;;;;;;20.55;45.49;100201.16;5036770;28;20056;-37
2023/11/30 13:32:31;;;;;;;6.43;2.28;;;;;;;20.58;45.53;100205.22;5028784;28;20098;-38
2023/11/30 13:34:56;;;;;;;4.45;2.28;;;;;;;20.61;45.32;100199.09;5044940;28;20358;-38
2023/11/30 13:37:23;;;;;;;2.72;2.25;;;;;;;20.64;45.53;100204.00;5046926;28;20074;-38
2023/11/30 13:39:48;;;;;;;4.15;2.40;;;;;;;20.67;45.26;100206.94;5044063;28;20465;-38
2023/11/30 13:42:14;;;;;;;4.90;2.38;;;;;;;20.72;45.47;100206.03;5046407;28;20035;-37
2023/11/30 13:44:39;;;;;;;4.88;2.03;;;;;;;20.76;45.42;100201.53;5044803;28;20493;-37
2023/11/30 13:47:04;;;;;;;5.75;2.63;;;;;;;20.81;45.37;100193.16;5046322;28;20037;-38
2023/11/30 13:49:30;;;;;;;3.45;2.00;;;;;;;20.86;45.07;100194.16;5046339;28;20048;-37
2023/11/30 13:51:55;;;;;;;3.78;2.17;;;;;;;20.91;44.88;100194.03;5045837;28;20017;-38
2023/11/30 13:54:22;;;;;;;3.42;1.90;;;;;;;20.93;44.97;100195.34;5046659;28;20028;-39
2023/11/30 13:56:47;;;;;;;2.00;1.85;;;;;;;20.96;45.02;100202.19;5045096;28;20039;-39
2023/11/30 13:59:12;;;;;;;4.20;2.20;;;;;;;20.97;44.83;100198.31;5027199;28;20021;-40
2023/11/30 14:01:38;;;;;;;2.25;1.90;;;;;;;20.99;44.75;100198.78;5046781;28;20052;-40
2023/11/30 14:04:04;;;;;;;2.22;2.00;;;;;;;20.99;44.40;100204.28;5046146;28;20025;-40
2023/11/30 14:06:29;;;;;;;1.90;1.70;;;;;;;20.99;44.41;100201.53;5045257;28;20028;-37
2023/11/30 14:08:55;;;;;;;2.65;2.03;;;;;;;20.97;44.40;100212.88;5046272;28;20083;-38
2023/11/30 14:11:20;;;;;;;2.38;1.85;;;;;;;20.96;44.54;100208.50;5027204;28;20126;-38
2023/11/30 14:13:46;;;;;;;5.50;2.00;;;;;;;20.95;44.51;100206.06;5045534;28;20031;-38
2023/11/30 14:16:11;;;;;;;2.42;1.83;;;;;;;20.93;44.38;100195.34;5044262;28;20094;-38
2023/11/30 14:18:36;;;;;;;2.92;1.70;;;;;;;20.93;44.25;100200.03;5045613;28;20029;-38
2023/11/30 14:21:02;;;;;;;3.33;2.00;;;;;;;20.92;44.36;100198.41;5046189;28;20048;-38
2023/11/30 14:23:27;;;;;;;2.53;2.00;;;;;;;20.90;43.92;100195.16;5038861;28;20090;-38
2023/11/30 14:25:53;;;;;;;3.35;2.30;;;;;;;20.89;43.95;100197.09;5045715;28;20040;-38
2023/11/30 14:28:18;;;;;;;3.63;2.03;;;;;;;20.89;44.18;100190.78;5007772;28;20029;-38
2023/11/30 14:30:44;;;;;;;2.38;1.80;;;;;;;20.87;44.17;100191.09;5040954;28;20080;-38
2023/11/30 14:33:10;;;;;;;2.38;1.92;;;;;;;20.86;43.96;100189.47;5046076;28;20032;-37
2023/11/30 14:35:35;;;;;;;2.65;2.00;;;;;;;20.84;44.05;100188.94;5036570;28;20094;-37
2023/11/30 14:38:00;;;;;;;2.60;2.00;;;;;;;20.80;43.96;100197.03;5042583;28;20031;-38
2023/11/30 14:40:26;;;;;;;2.60;2.22;;;;;;;20.78;43.81;100201.22;5040447;28;20033;-38
2023/11/30 14:42:51;;;;;;;2.78;2.03;;;;;;;20.76;43.75;100197.94;5050394;28;20025;-38
2023/11/30 14:45:17;;;;;;;2.75;2.20;;;;;;;20.73;43.86;100207.66;5030265;28;21284;-37
2023/11/30 14:47:43;;;;;;;2.10;1.90;;;;;;;20.73;44.05;100212.34;5045617;28;20547;-38
2023/11/30 14:50:15;;;;;;;2.00;1.77;;;;;;;20.73;43.94;100209.59;5046002;28;20067;-38
2023/11/30 14:52:44;;;;;;;3.25;2.13;;;;;;;20.72;43.92;100205.22;5044578;28;20425;-40
2023/11/30 14:55:10;;;;;;;2.35;1.98;;;;;;;20.71;43.90;100204.38;5049214;28;20042;-40
2023/11/30 14:57:36;;;;;;;1.90;1.80;;;;;;;20.72;44.06;100211.53;5025443;28;20418;-37
2023/11/30 15:00:04;;;;;;;2.60;1.95;;;;;;;20.73;43.74;100204.91;5046018;28;20071;-35
2023/11/30 15:02:30;;;;;;;2.55;1.80;;;;;;;20.74;43.92;100205.72;5044666;28;20544;-38
2023/11/30 15:04:55;;;;;;;2.17;1.88;;;;;;;20.75;44.04;100212.88;5048376;28;20032;-38
2023/11/30 15:07:23;;;;;;;2.60;1.95;;;;;;;20.75;44.03;100210.13;5049892;28;20111;-36
2023/11/30 15:09:48;;;;;;;2.38;1.90;;;;;;;20.75;43.95;100213.66;5026975;28;20462;-36
2023/11/30 15:12:14;;;;;;;2.20;2.00;;;;;;;20.75;43.97;100213.66;5046894;28;20100;-36
2023/11/30 15:14:39;;;;;;;2.30;2.10;;;;;;;20.77;43.99;100218.84;5047354;28;20025;-36
2023/11/30 15:17:05;;;;;;;2.75;1.98;;;;;;;20.76;43.75;100215.31;5028906;28;20237;-36
2023/11/30 15:19:30;;;;;;;3.22;2.20;;;;;;;20.77;43.77;100216.09;5047215;28;20408;-39
2023/11/30 15:21:55;;;;;;;2.17;1.98;;;;;;;20.74;44.03;100220.31;5043028;28;20136;-39
2023/11/30 15:24:21;;;;;;;2.50;2.00;;;;;;;20.73;43.80;100218.66;5044212;28;20021;-40
2023/11/30 15:26:46;;;;;;;2.92;2.17;;;;;;;20.72;43.82;100232.75;5043480;28;20045;-39
2023/11/30 15:29:12;;;;;;;2.97;2.13;;;;;;;20.69;43.95;100228.66;5041294;28;20149;-39
2023/11/30 15:31:37;;;;;;;2.22;2.03;;;;;;;20.66;43.76;100227.34;5048975;28;20163;-39
2023/11/30 15:34:02;;;;;;;3.03;2.05;;;;;;;20.64;43.86;100226.03;5046412;28;20052;-36
2023/11/30 15:36:28;;;;;;;2.40;2.00;;;;;;;20.61;43.81;100229.38;5052531;28;20486;-36
2023/11/30 15:38:53;;;;;;;2.03;1.83;;;;;;;20.59;43.80;100228.88;5032456;28;20022;-39
2023/11/30 15:41:19;;;;;;;2.72;2.20;;;;;;;20.56;44.14;100232.25;5045490;28;20584;-39
2023/11/30 15:43:44;;;;;;;4.55;2.35;;;;;;;20.55;43.79;100236.94;5044113;28;20028;-37
2023/11/30 15:46:10;;;;;;;2.40;1.95;;;;;;;20.53;43.79;100230.94;5028775;28;20071;-36
2023/11/30 15:48:36;;;;;;;2.47;2.28;;;;;;;20.54;44.16;100232.56;5045353;28;20390;-37
2023/11/30 15:51:02;;;;;;;2.60;2.00;;;;;;;20.55;44.00;100230.63;5047953;28;20017;-37
2023/11/30 15:53:27;;;;;;;3.85;2.35;;;;;;;20.55;44.01;100238.88;5029392;28;20032;-40
2023/11/30 15:55:53;;;;;;;2.85;2.40;;;;;;;20.53;44.12;100226.22;5044154;28;20128;-39
2023/11/30 15:58:18;;;;;;;3.97;2.60;;;;;;;20.52;43.71;100235.59;5043176;28;20029;-40
2023/11/30 16:00:44;;;;;;;2.83;2.30;;;;;;;20.52;43.88;100240.31;5042362;28;20028;-40
2023/11/30 16:03:09;;;;;;;2.70;2.42;;;;;;;20.51;44.11;100244.19;5048587;28;20024;-39
2023/11/30 16:05:35;;;;;;;2.83;2.28;;;;;;;20.48;44.10;100240.09;5043824;28;20112;-40
2023/11/30 16:08:00;;;;;;;3.92;2.50;;;;;;;20.47;43.91;100240.41;5048954;28;20029;-39
2023/11/30 16:10:26;;;;;;;3.45;2.60;;;;;;;20.44;43.77;100235.53;5042855;28;20531;-39
2023/11/30 16:12:51;;;;;;;4.45;2.85;;;;;;;20.42;44.22;100235.84;5049919;28;20078;-39
2023/11/30 16:15:16;;;;;;;3.95;2.58;;;;;;;20.39;44.01;100235.63;5037033;28;20099;-39
2023/11/30 16:17:42;;;;;;;4.78;2.78;;;;;;;20.38;43.80;100245.00;5048412;28;20033;-39
2023/11/30 16:20:11;;;;;;;3.08;2.78;;;;;;;20.37;44.19;100241.44;5037353;28;20116;-39
2023/11/30 16:22:38;;;;;;;3.45;2.80;;;;;;;20.37;44.26;100227.69;5050305;28;20101;-37
2023/11/30 16:25:04;;;;;;;3.78;2.90;;;;;;;20.38;44.29;100240.34;5040057;28;20051;-37
2023/11/30 16:27:29;;;;;;;3.25;2.65;;;;;;;20.41;44.04;100238.91;5050516;28;20036;-37
2023/11/30 16:29:55;;;;;;;2.97;2.63;;;;;;;20.43;44.10;100245.72;5041009;28;20414;-39
2023/11/30 16:32:23;;;;;;;3.35;2.80;;;;;;;20.48;44.16;100231.84;5043362;28;20028;-39
2023/11/30 16:34:48;;;;;;;3.63;2.80;;;;;;;20.53;44.18;100230.94;5037272;28;20309;-40
2023/11/30 16:37:14;;;;;;;2.95;2.40;;;;;;;20.58;44.46;100227.25;5038381;28;20587;-40
2023/11/30 16:39:39;;;;;;;3.35;2.83;;;;;;;20.63;44.13;100233.44;5038428;28;20190;-40
2023/11/30 16:42:05;;;;;;;3.25;2.38;;;;;;;20.68;44.21;100227.00;5025303;28;20029;-37
2023/11/30 16:44:30;;;;;;;2.92;2.53;;;;;;;20.74;44.34;100230.50;5036142;28;20400;-37
2023/11/30 16:46:56;;;;;;;4.78;2.50;;;;;;;20.79;44.18;100225.69;5015201;28;20029;-40
2023/11/30 16:49:21;;;;;;;2.47;2.28;;;;;;;20.84;44.18;100225.59;5036410;28;20040;-39
2023/11/30 16:51:47;;;;;;;2.50;2.30;;;;;;;20.89;44.50;100223.84;5041026;28;20025;-39
2023/11/30 16:54:12;;;;;;;2.45;2.25;;;;;;;20.92;44.23;100229.53;5029443;28;20057;-40
2023/11/30 16:56:39;;;;;;;3.70;2.55;;;;;;;20.93;44.22;100236.69;5047199;28;20040;-40
2023/11/30 16:59:05;;;;;;;2.92;2.30;;;;;;;20.94;44.48;100243.81;5036185;28;20033;-37
2023/11/30 17:01:31;;;;;;;3.25;2.50;;;;;;;20.93;44.34;100238.59;5012644;28;20086;-39
2023/11/30 17:03:57;;;;;;;3.20;2.40;;;;;;;20.92;44.45;100237.78;5044656;28;20039;-40
2023/11/30 17:06:22;;;;;;;4.20;2.67;;;;;;;20.89;44.58;100230.13;5044473;28;20024;-40
2023/11/30 17:08:48;;;;;;;3.00;2.70;;;;;;;20.86;44.27;100225.28;5038287;28;20448;-39
2023/11/30 17:11:13;;;;;;;3.53;2.80;;;;;;;20.84;44.71;100220.09;5056918;28;20481;-40
2023/11/30 17:13:41;;;;;;;3.38;2.58;;;;;;;20.81;44.46;100220.69;5044512;28;20047;-39
2023/11/30 17:16:08;;;;;;;2.70;2.50;;;;;;;20.80;43.97;100221.00;5044166;28;20520;-40
2023/11/30 17:18:34;;;;;;;3.28;2.42;;;;;;;20.77;44.41;100230.72;5049661;28;20028;-40
2023/11/30 17:20:59;;;;;;;3.00;2.70;;;;;;;20.75;44.28;100232.16;5046263;28;20078;-39
2023/11/30 17:23:25;;;;;;;2.80;2.60;;;;;;;20.73;44.25;100228.88;5046540;28;20017;-39
2023/11/30 17:25:51;;;;;;;2.85;2.60;;;;;;;20.69;44.08;100237.72;5053052;28;20040;-39
2023/11/30 17:28:16;;;;;;;2.95;2.63;;;;;;;20.66;44.26;100238.34;5045142;28;20380;-37
2023/11/30 17:30:42;;;;;;;3.25;2.67;;;;;;;20.64;44.45;100239.78;5032779;28;20044;-36
2023/11/30 17:33:07;;;;;;;2.80;2.60;;;;;;;20.60;44.25;100238.75;5046386;28;20032;-39
2023/11/30 17:35:33;;;;;;;3.58;2.70;;;;;;;20.57;44.17;100242.94;5043517;28;20112;-39
2023/11/30 17:37:58;;;;;;;4.35;2.90;;;;;;;20.52;44.01;100241.09;5045649;28;20031;-39
2023/11/30 17:40:23;;;;;;;2.92;2.67;;;;;;;20.49;44.33;100252.75;5039675;28;20057;-39
2023/11/30 17:42:49;;;;;;;2.75;2.55;;;;;;;20.47;44.07;100248.69;5044006;28;20477;-39
2023/11/30 17:45:15;;;;;;;3.13;2.63;;;;;;;20.42;44.37;100262.56;5028975;28;20036;-40
2023/11/30 17:47:40;;;;;;;2.80;2.60;;;;;;;20.39;44.39;100258.44;5036956;28;20074;-40
2023/11/30 17:50:07;;;;;;;2.70;2.50;;;;;;;20.36;44.48;100259.88;5039919;28;20098;-39
2023/11/30 17:52:32;;;;;;;3.22;2.63;;;;;;;20.32;44.30;100264.38;5045146;28;20029;-39
2023/11/30 17:54:58;;;;;;;3.00;2.67;;;;;;;20.31;44.29;100267.44;5044328;28;20032;-39
2023/11/30 17:57:23;;;;;;;2.95;2.42;;;;;;;20.29;44.34;100266.94;5028308;28;20040;-40
2023/11/30 17:59:48;;;;;;;2.75;2.55;;;;;;;20.28;44.30;100274.38;5023859;28;20316;-40
2023/11/30 18:02:14;;;;;;;2.60;2.40;;;;;;;20.27;44.55;100267.25;5046002;28;20059;-39
2023/11/30 18:04:39;;;;;;;2.85;2.30;;;;;;;20.27;44.44;100264.50;5020315;28;20359;-39
2023/11/30 18:07:09;;;;;;;2.80;2.55;;;;;;;20.28;44.60;100259.78;5042159;28;20079;-39
2023/11/30 18:09:34;;;;;;;2.92;2.65;;;;;;;20.27;44.64;100261.75;5040113;28;20083;-38
2023/11/30 18:11:59;;;;;;;3.28;2.63;;;;;;;20.29;44.38;100251.22;5056163;28;20036;-40
2023/11/30 18:14:31;;;;;;;2.95;2.53;;;;;;;20.29;44.58;100251.22;5045516;28;20021;-39
2023/11/30 18:16:57;;;;;;;2.97;2.78;;;;;;;20.29;44.51;100251.22;5009654;28;20064;-40
2023/11/30 18:19:22;;;;;;;3.08;2.78;;;;;;;20.31;44.68;100256.44;5041783;28;20043;-40
2023/11/30 18:21:47;;;;;;;3.22;2.92;;;;;;;20.31;44.53;100256.44;5027632;28;20033;-40
2023/11/30 18:24:13;;;;;;;2.63;2.42;;;;;;;20.32;44.62;100263.59;5046134;28;20226;-40
2023/11/30 18:26:38;;;;;;;2.95;2.60;;;;;;;20.30;44.52;100255.59;5038695;28;20024;-40
2023/11/30 18:29:03;;;;;;;2.50;2.30;;;;;;;20.29;44.40;100261.44;5045013;28;20080;-38
2023/11/30 18:31:29;;;;;;;2.90;2.60;;;;;;;20.28;44.60;100262.53;5040561;28;20037;-39
2023/11/30 18:33:54;;;;;;;2.70;2.50;;;;;;;20.26;44.61;100262.06;5053984;28;20029;-36
2023/11/30 18:36:20;;;;;;;2.72;2.50;;;;;;;20.24;44.49;100265.09;5026596;28;20124;-36
2023/11/30 18:38:45;;;;;;;3.20;2.83;;;;;;;20.22;44.71;100261.84;5044315;28;20024;-37
2023/11/30 18:41:12;;;;;;;3.45;2.83;;;;;;;20.20;44.67;100262.13;5045096;28;20039;-37
2023/11/30 18:43:37;;;;;;;3.00;2.70;;;;;;;20.18;44.59;100264.41;5027872;28;20518;-37
2023/11/30 18:46:03;;;;;;;3.00;2.70;;;;;;;20.18;44.56;100269.91;5040539;28;20037;-37
2023/11/30 18:48:29;;;;;;;3.45;2.63;;;;;;;20.17;44.68;100267.44;5044070;28;20090;-38
2023/11/30 18:50:54;;;;;;;3.72;2.97;;;;;;;20.17;44.78;100261.94;5044288;28;20940;-40
2023/11/30 18:53:19;;;;;;;3.58;2.53;;;;;;;20.17;44.84;100267.44;5043223;28;20051;-39
2023/11/30 18:55:45;;;;;;;12.25;3.30;;;;;;;20.16;44.88;100261.13;5046740;28;20025;-45
2023/11/30 18:58:12;;;;;;;14.55;3.47;;;;;;;20.20;45.42;100264.09;5045284;28;20028;-43
2023/11/30 19:00:37;;;;;;;10.60;3.10;;;;;;;20.25;45.39;100268.69;5045169;28;20071;-44
2023/11/30 19:03:03;;;;;;;3.92;2.88;;;;;;;20.30;45.27;100265.81;5050663;28;20029;-42
2023/11/30 19:05:28;;;;;;;4.55;3.10;;;;;;;20.36;45.18;100261.84;5040486;28;20025;-43
2023/11/30 19:07:53;;;;;;;5.30;3.75;;;;;;;20.41;45.15;100261.72;5054636;28;20451;-41
2023/11/30 19:10:20;;;;;;;6.57;3.35;;;;;;;20.46;45.31;100260.81;5042463;28;20501;-41
2023/11/30 19:12:45;;;;;;;6.47;3.35;;;;;;;20.50;45.23;100261.81;5044310;28;20021;-36
2023/11/30 19:15:11;;;;;;;5.75;3.30;;;;;;;20.52;44.79;100251.31;5045619;28;20063;-36
2023/11/30 19:17:36;;;;;;;5.68;4.10;;;;;;;20.55;44.75;100256.22;5044494;28;20358;-36
2023/11/30 19:20:05;;;;;;;5.70;3.85;;;;;;;20.58;44.92;100263.03;5026675;28;20028;-41
2023/11/30 19:22:30;;;;;;;4.45;3.70;;;;;;;20.59;45.06;100273.75;5042608;28;20064;-36
2023/11/30 19:24:56;;;;;;;5.35;3.80;;;;;;;20.62;44.52;100283.31;5042007;28;20838;-38
2023/11/30 19:27:22;;;;;;;12.23;4.20;;;;;;;20.63;44.74;100287.72;5041905;28;20127;-36
2023/11/30 19:29:47;;;;;;;9.23;4.68;;;;;;;20.61;44.63;100290.78;5043254;28;20078;-36
2023/11/30 19:32:12;;;;;;;6.93;4.05;;;;;;;20.59;44.56;100289.44;5035854;28;20025;-36
2023/11/30 19:34:38;;;;;;;6.95;4.32;;;;;;;20.55;44.59;100286.50;5043505;28;20029;-36
2023/11/30 19:37:03;;;;;;;8.25;4.28;;;;;;;20.51;44.58;100280.78;5045826;28;20072;-38
2023/11/30 19:39:29;;;;;;;6.57;4.30;;;;;;;20.47;44.71;100288.00;5044889;28;20021;-37
2023/11/30 19:41:54;;;;;;;7.40;4.30;;;;;;;20.43;44.23;100277.91;5014346;28;20028;-36
2023/11/30 19:44:20;;;;;;;4.95;4.45;;;;;;;20.38;44.75;100278.88;5043210;28;20094;-36
2023/11/30 19:46:47;;;;;;;5.20;4.30;;;;;;;20.35;44.72;100273.97;5042341;28;20119;-37
2023/11/30 19:49:14;;;;;;;5.22;4.30;;;;;;;20.33;44.49;100278.94;5025457;28;20486;-36